createdAt,value
2018-12-10T00:01:56.130Z,6.80
2018-12-10T00:04:24.313Z,6.80
2018-12-10T00:06:52.461Z,6.80
2018-12-10T00:09:20.648Z,6.80
2018-12-10T00:11:48.834Z,6.80
2018-12-10T00:14:17.013Z,6.80
2018-12-10T00:16:45.155Z,6.80
2018-12-10T00:19:13.323Z,6.80
2018-12-10T00:21:41.529Z,6.80
2018-12-10T00:24:09.692Z,6.80
2018-12-10T00:26:37.835Z,6.80
2018-12-10T00:29:06.008Z,6.80
2018-12-10T00:31:34.401Z,6.80
2018-12-10T00:34:02.626Z,6.80
2018-12-10T00:36:30.769Z,6.90
2018-12-10T00:38:58.928Z,6.80
2018-12-10T00:41:27.336Z,6.80
2018-12-10T00:43:55.513Z,6.80
2018-12-10T00:46:23.661Z,6.80
2018-12-10T00:48:51.829Z,6.90
2018-12-10T00:51:20.241Z,6.80
2018-12-10T00:53:48.536Z,6.70
2018-12-10T00:56:16.700Z,6.70
2018-12-10T00:58:44.874Z,6.70
2018-12-10T01:01:13.411Z,6.70
2018-12-10T01:03:41.590Z,6.70
2018-12-10T01:06:09.770Z,6.70
2018-12-10T01:08:37.942Z,6.60
2018-12-10T01:11:06.236Z,6.50
2018-12-10T01:13:34.403Z,6.60
2018-12-10T01:16:02.551Z,6.50
2018-12-10T01:18:30.715Z,6.50
2018-12-10T01:20:58.932Z,6.40
2018-12-10T01:23:27.217Z,6.40
2018-12-10T01:25:55.469Z,6.30
2018-12-10T01:28:23.677Z,6.30
2018-12-10T01:30:53.578Z,6.30
2018-12-10T01:33:21.868Z,6.20
2018-12-10T01:35:50.012Z,6.20
2018-12-10T01:38:18.195Z,6.20
2018-12-10T01:40:46.436Z,6.30
2018-12-10T01:43:14.597Z,6.20
2018-12-10T01:45:42.751Z,6.30
2018-12-10T01:48:10.925Z,6.20
2018-12-10T01:50:39.269Z,6.30
2018-12-10T01:53:07.441Z,6.30
2018-12-10T01:55:35.590Z,6.30
2018-12-10T01:58:03.762Z,6.40
2018-12-10T02:00:31.937Z,6.40
2018-12-10T02:03:00.089Z,6.40
2018-12-10T02:05:28.261Z,6.30
2018-12-10T02:07:56.413Z,6.40
2018-12-10T02:10:24.688Z,6.40
2018-12-10T02:12:52.836Z,6.50
2018-12-10T02:15:21.014Z,6.50
2018-12-10T02:17:49.222Z,6.50
2018-12-10T02:20:17.701Z,6.50
2018-12-10T02:22:45.847Z,6.50
2018-12-10T02:25:14.013Z,6.50
2018-12-10T02:27:42.158Z,6.50
2018-12-10T02:30:10.468Z,6.40
2018-12-10T02:32:38.613Z,6.50
2018-12-10T02:35:06.791Z,6.50
2018-12-10T02:37:34.934Z,6.50
2018-12-10T02:40:03.609Z,6.40
2018-12-10T02:42:31.759Z,6.30
2018-12-10T02:44:59.924Z,6.30
2018-12-10T02:47:28.078Z,6.30
2018-12-10T02:49:56.305Z,6.40
2018-12-10T02:52:24.441Z,6.30
2018-12-10T02:54:52.616Z,6.40
2018-12-10T02:57:20.767Z,6.40
2018-12-10T02:59:49.206Z,6.40
2018-12-10T03:02:17.353Z,6.40
2018-12-10T03:04:45.521Z,6.40
2018-12-10T03:07:13.676Z,6.30
2018-12-10T03:09:41.997Z,6.30
2018-12-10T03:12:10.153Z,6.30
2018-12-10T03:14:38.322Z,6.30
2018-12-10T03:17:06.475Z,6.30
2018-12-10T03:19:34.690Z,6.30
2018-12-10T03:22:02.916Z,6.30
2018-12-10T03:24:31.223Z,6.30
2018-12-10T03:26:59.362Z,6.30
2018-12-10T03:29:27.700Z,6.30
2018-12-10T03:31:55.848Z,6.40
2018-12-10T03:34:24.022Z,6.40
2018-12-10T03:36:52.167Z,6.30
2018-12-10T03:39:20.384Z,6.40
2018-12-10T03:41:48.533Z,6.40
2018-12-10T03:44:16.704Z,6.40
2018-12-10T03:46:44.858Z,6.40
2018-12-10T03:49:13.297Z,6.40
2018-12-10T03:51:41.449Z,6.40
2018-12-10T03:54:09.620Z,6.40
2018-12-10T03:56:37.772Z,6.40
2018-12-10T03:59:06.014Z,6.50
2018-12-10T04:01:34.162Z,6.50
2018-12-10T04:04:02.321Z,6.40
2018-12-10T04:06:30.493Z,6.30
2018-12-10T04:08:58.909Z,6.30
2018-12-10T04:11:27.264Z,6.30
2018-12-10T04:13:55.418Z,6.40
2018-12-10T04:16:23.582Z,6.40
2018-12-10T04:18:51.969Z,6.50
2018-12-10T04:21:20.141Z,6.50
2018-12-10T04:23:48.304Z,6.50
2018-12-10T04:26:16.468Z,6.40
2018-12-10T04:28:44.668Z,6.50
2018-12-10T04:31:12.846Z,6.40
2018-12-10T04:33:41.060Z,6.50
2018-12-10T04:36:09.242Z,6.60
2018-12-10T04:38:37.466Z,6.50
2018-12-10T04:41:05.637Z,6.40
2018-12-10T04:43:33.780Z,6.40
2018-12-10T04:46:01.957Z,6.50
2018-12-10T04:48:30.272Z,6.80
2018-12-10T04:50:58.452Z,7.60
2018-12-10T04:53:26.608Z,7.90
2018-12-10T04:55:54.781Z,7.50
2018-12-10T04:58:22.955Z,7.50
2018-12-10T05:00:51.127Z,7.20
2018-12-10T05:03:20.642Z,7.10
2018-12-10T05:05:48.815Z,7.10
2018-12-10T05:08:17.101Z,7.00
2018-12-10T05:10:45.277Z,7.00
2018-12-10T05:13:13.433Z,7.00
2018-12-10T05:15:41.603Z,6.90
2018-12-10T05:18:09.894Z,6.90
2018-12-10T05:20:38.069Z,6.90
2018-12-10T05:23:06.233Z,6.90
2018-12-10T05:25:34.437Z,6.90
2018-12-10T05:28:02.686Z,6.90
2018-12-10T05:30:30.856Z,6.80
2018-12-10T05:32:59.004Z,6.80
2018-12-10T05:35:27.205Z,6.80
2018-12-10T05:37:55.589Z,6.80
2018-12-10T05:40:23.762Z,6.80
2018-12-10T05:42:51.912Z,6.60
2018-12-10T05:45:20.093Z,6.70
2018-12-10T05:47:48.505Z,6.70
2018-12-10T05:50:16.673Z,6.80
2018-12-10T05:52:44.820Z,6.70
2018-12-10T05:55:13.005Z,6.70
2018-12-10T05:57:41.271Z,6.70
2018-12-10T06:00:09.804Z,6.70
2018-12-10T06:02:37.972Z,6.50
2018-12-10T06:05:06.192Z,6.40
2018-12-10T06:07:34.623Z,6.40
2018-12-10T06:10:02.840Z,6.50
2018-12-10T06:12:31.016Z,6.40
2018-12-10T06:14:59.184Z,6.40
2018-12-10T06:17:27.441Z,6.40
2018-12-10T06:19:55.587Z,6.50
2018-12-10T06:22:23.757Z,6.50
2018-12-10T06:24:51.911Z,6.50
2018-12-10T06:27:20.228Z,6.40
2018-12-10T06:29:48.368Z,6.50
2018-12-10T06:32:16.555Z,6.40
2018-12-10T06:34:44.699Z,6.40
2018-12-10T06:37:12.926Z,6.40
2018-12-10T06:39:41.075Z,6.40
2018-12-10T06:42:09.255Z,6.30
2018-12-10T06:44:37.400Z,6.30
2018-12-10T06:47:05.833Z,6.30
2018-12-10T06:49:33.980Z,6.40
2018-12-10T06:52:02.152Z,6.40
2018-12-10T06:54:30.297Z,6.30
2018-12-10T06:56:58.506Z,6.30
2018-12-10T06:59:26.653Z,6.20
2018-12-10T07:01:55.104Z,6.30
2018-12-10T07:04:23.257Z,6.30
2018-12-10T07:06:51.528Z,6.30
2018-12-10T07:09:19.717Z,6.10
2018-12-10T07:11:47.894Z,6.00
2018-12-10T07:14:16.036Z,6.00
2018-12-10T07:16:44.380Z,5.90
2018-12-10T07:19:12.529Z,5.80
2018-12-10T07:21:40.701Z,5.70
2018-12-10T07:24:08.851Z,5.40
2018-12-10T07:26:37.209Z,5.50
2018-12-10T07:29:05.477Z,5.50
2018-12-10T07:31:33.738Z,5.40
2018-12-10T07:34:01.885Z,5.30
2018-12-10T07:36:30.131Z,5.40
2018-12-10T07:38:58.374Z,5.30
2018-12-10T07:41:26.833Z,5.20
2018-12-10T07:43:54.989Z,5.20
2018-12-10T07:46:23.408Z,5.20
2018-12-10T07:48:51.560Z,5.10
2018-12-10T07:51:19.727Z,5.10
2018-12-10T07:53:47.877Z,5.10
2018-12-10T07:56:16.149Z,5.10
2018-12-10T07:58:44.295Z,5.10
2018-12-10T08:01:12.442Z,5.00
2018-12-10T08:03:40.612Z,5.00
2018-12-10T08:06:08.801Z,5.20
2018-12-10T08:08:36.964Z,5.20
2018-12-10T08:11:05.114Z,5.30
2018-12-10T08:13:33.281Z,5.40
2018-12-10T08:16:01.500Z,5.50
2018-12-10T08:18:29.668Z,5.60
2018-12-10T08:21:02.281Z,5.70
2018-12-10T08:23:28.034Z,5.70
2018-12-10T08:25:56.518Z,5.80
2018-12-10T08:28:24.685Z,5.70
2018-12-10T08:30:52.830Z,5.70
2018-12-10T08:33:21.004Z,5.80
2018-12-10T08:35:49.237Z,5.80
2018-12-10T08:38:17.409Z,5.90
2018-12-10T08:40:45.625Z,5.90
2018-12-10T08:43:13.792Z,5.90
2018-12-10T08:45:42.040Z,6.00
2018-12-10T08:48:10.212Z,6.10
2018-12-10T08:50:38.364Z,6.10
2018-12-10T08:53:06.537Z,6.10
2018-12-10T08:55:34.740Z,6.10
2018-12-10T08:58:02.917Z,6.10
2018-12-10T09:00:31.152Z,6.00
2018-12-10T09:02:59.376Z,6.00
2018-12-10T09:05:27.645Z,6.10
2018-12-10T09:07:55.817Z,6.10
2018-12-10T09:10:23.964Z,6.00
2018-12-10T09:12:52.204Z,6.00
2018-12-10T09:15:20.436Z,6.00
2018-12-10T09:17:48.605Z,6.00
2018-12-10T09:20:16.764Z,6.10
2018-12-10T09:22:44.928Z,6.20
2018-12-10T09:25:13.212Z,6.10
2018-12-10T09:27:41.392Z,6.10
2018-12-10T09:30:10.710Z,6.10
2018-12-10T09:32:38.864Z,6.20
2018-12-10T09:35:07.091Z,6.20
2018-12-10T09:37:35.256Z,6.20
2018-12-10T09:40:05.449Z,6.10
2018-12-10T09:42:33.637Z,6.10
2018-12-10T09:45:01.926Z,6.10
2018-12-10T09:47:30.283Z,6.10
2018-12-10T09:49:58.418Z,6.20
2018-12-10T09:52:26.588Z,6.20
2018-12-10T09:54:54.881Z,6.20
2018-12-10T09:57:24.769Z,6.30
2018-12-10T09:59:53.062Z,6.30
2018-12-10T10:02:21.233Z,6.20
2018-12-10T10:04:49.586Z,6.30
2018-12-10T10:07:17.731Z,6.30
2018-12-10T10:09:45.904Z,6.30
2018-12-10T10:12:14.116Z,6.40
2018-12-10T10:14:42.389Z,6.50
2018-12-10T10:17:10.545Z,6.50
2018-12-10T10:19:38.712Z,6.70
2018-12-10T10:22:06.857Z,6.70
2018-12-10T10:24:35.087Z,6.70
2018-12-10T10:27:03.301Z,6.70
2018-12-10T10:29:31.465Z,6.70
2018-12-10T10:31:59.616Z,6.80
2018-12-10T10:34:27.891Z,6.80
2018-12-10T10:36:56.040Z,7.30
2018-12-10T10:39:24.209Z,7.50
2018-12-10T10:41:52.433Z,7.30
2018-12-10T10:44:20.673Z,7.30
2018-12-10T10:46:48.825Z,7.30
2018-12-10T10:49:17.006Z,7.30
2018-12-10T10:51:45.158Z,7.20
2018-12-10T10:54:13.382Z,7.10
2018-12-10T10:56:41.532Z,6.80
2018-12-10T10:59:09.709Z,6.60
2018-12-10T11:01:43.612Z,6.30
2018-12-10T11:04:11.907Z,6.40
2018-12-10T11:06:41.052Z,6.30
2018-12-10T11:09:15.266Z,6.30
2018-12-10T11:11:39.401Z,6.20
2018-12-10T11:14:08.245Z,6.10
2018-12-10T11:16:36.396Z,6.30
2018-12-10T11:19:04.711Z,6.30
2018-12-10T11:21:32.852Z,6.40
2018-12-10T11:24:01.197Z,6.40
2018-12-10T11:26:29.345Z,6.30
2018-12-10T11:28:57.522Z,6.40
2018-12-10T11:31:25.660Z,6.40
2018-12-10T11:33:53.917Z,6.70
2018-12-10T11:36:22.080Z,6.50
2018-12-10T11:38:50.253Z,6.80
2018-12-10T11:41:18.400Z,6.80
2018-12-10T11:43:46.689Z,7.00
2018-12-10T11:46:14.837Z,7.00
2018-12-10T11:48:43.001Z,7.10
2018-12-10T11:51:11.149Z,7.50
2018-12-10T11:53:43.674Z,7.60
2018-12-10T11:56:11.821Z,7.60
2018-12-10T11:58:39.987Z,7.60
2018-12-10T12:01:08.132Z,7.60
2018-12-10T12:03:39.452Z,7.50
2018-12-10T12:06:07.596Z,7.40
2018-12-10T12:08:36.027Z,7.40
2018-12-10T12:11:04.197Z,7.30
2018-12-10T12:13:32.444Z,7.20
2018-12-10T12:16:00.624Z,7.20
2018-12-10T12:18:28.764Z,7.20
2018-12-10T12:20:56.938Z,7.20
2018-12-10T12:23:25.340Z,7.20
2018-12-10T12:25:53.517Z,7.10
2018-12-10T12:28:21.656Z,7.10
2018-12-10T12:30:49.824Z,7.50
2018-12-10T12:33:18.062Z,7.40
2018-12-10T12:35:46.315Z,7.30
2018-12-10T12:38:14.488Z,7.20
2018-12-10T12:40:42.660Z,7.30
2018-12-10T12:43:15.784Z,7.30
2018-12-10T12:45:41.121Z,7.40
2018-12-10T12:48:09.268Z,7.30
2018-12-10T12:50:37.450Z,7.30
2018-12-10T12:53:05.782Z,7.30
2018-12-10T12:55:33.963Z,7.30
2018-12-10T12:58:02.288Z,7.20
2018-12-10T13:00:30.464Z,7.20
2018-12-10T13:02:58.687Z,7.10
2018-12-10T13:05:26.866Z,7.10
2018-12-10T13:07:55.008Z,7.00
2018-12-10T13:10:23.184Z,6.70
2018-12-10T13:12:51.564Z,6.70
2018-12-10T13:15:19.761Z,6.70
2018-12-10T13:17:48.001Z,6.80
2018-12-10T13:20:16.181Z,6.80
2018-12-10T13:22:47.585Z,6.60
2018-12-10T13:25:14.675Z,6.70
2018-12-10T13:27:42.822Z,6.50
2018-12-10T13:30:10.992Z,6.50
2018-12-10T13:32:39.225Z,6.60
2018-12-10T13:35:07.397Z,6.70
2018-12-10T13:37:35.537Z,6.80
2018-12-10T13:40:05.505Z,6.60
2018-12-10T13:42:33.718Z,6.40
2018-12-10T13:45:01.877Z,6.30
2018-12-10T13:47:30.021Z,6.30
2018-12-10T13:49:58.193Z,6.40
2018-12-10T13:52:26.356Z,6.40
2018-12-10T13:54:54.537Z,6.50
2018-12-10T13:57:22.687Z,6.50
2018-12-10T13:59:50.864Z,6.50
2018-12-10T14:02:19.169Z,6.60
2018-12-10T14:04:48.964Z,6.60
2018-12-10T14:07:17.142Z,6.60
2018-12-10T14:09:45.369Z,6.60
2018-12-10T14:12:13.665Z,6.50
2018-12-10T14:14:41.885Z,6.50
2018-12-10T14:17:10.053Z,6.40
2018-12-10T14:19:38.202Z,6.30
2018-12-10T14:22:06.525Z,6.30
2018-12-10T14:24:34.668Z,6.20
2018-12-10T14:27:02.845Z,6.30
2018-12-10T14:29:31.064Z,6.30
2018-12-10T14:31:59.399Z,6.10
2018-12-10T14:34:27.550Z,6.20
2018-12-10T14:36:55.716Z,6.20
2018-12-10T14:39:23.870Z,6.30
2018-12-10T14:41:52.130Z,6.30
2018-12-10T14:44:20.274Z,6.30
2018-12-10T14:46:48.447Z,6.30
2018-12-10T14:49:16.605Z,6.40
2018-12-10T14:51:44.825Z,6.10
2018-12-10T14:54:12.968Z,6.10
2018-12-10T14:56:41.151Z,6.00
2018-12-10T14:59:09.300Z,6.30
2018-12-10T15:01:37.623Z,6.30
2018-12-10T15:04:05.765Z,6.30
2018-12-10T15:06:33.937Z,6.30
2018-12-10T15:09:02.082Z,6.30
2018-12-10T15:11:30.312Z,6.30
2018-12-10T15:13:58.464Z,6.20
2018-12-10T15:16:26.629Z,6.20
2018-12-10T15:18:54.774Z,6.30
2018-12-10T15:21:23.012Z,6.30
2018-12-10T15:23:51.166Z,6.30
2018-12-10T15:26:19.345Z,6.10
2018-12-10T15:28:47.491Z,6.30
2018-12-10T15:31:15.717Z,6.20
2018-12-10T15:33:43.879Z,6.20
2018-12-10T15:36:12.053Z,6.30
2018-12-10T15:38:40.199Z,6.20
2018-12-10T15:41:08.576Z,6.30
2018-12-10T15:43:36.732Z,6.30
2018-12-10T15:46:04.971Z,6.30
2018-12-10T15:48:33.125Z,6.30
2018-12-10T15:51:01.428Z,6.30
2018-12-10T15:53:29.569Z,6.30
2018-12-10T15:55:57.744Z,6.20
2018-12-10T15:58:25.964Z,6.20
2018-12-10T16:00:54.328Z,6.20
2018-12-10T16:03:22.540Z,6.10
2018-12-10T16:05:50.713Z,6.00
2018-12-10T16:08:18.884Z,6.00
2018-12-10T16:10:47.090Z,6.10
2018-12-10T16:13:15.264Z,6.00
2018-12-10T16:15:43.417Z,6.10
2018-12-10T16:18:11.588Z,6.10
2018-12-10T16:20:39.893Z,6.10
2018-12-10T16:23:08.061Z,6.10
2018-12-10T16:25:36.209Z,6.10
2018-12-10T16:28:04.384Z,6.10
2018-12-10T16:30:32.968Z,6.00
2018-12-10T16:33:06.875Z,6.10
2018-12-10T16:35:40.665Z,6.10
2018-12-10T16:38:08.840Z,6.10
2018-12-10T16:40:37.257Z,6.10
2018-12-10T16:43:05.503Z,6.10
2018-12-10T16:45:33.649Z,6.10
2018-12-10T16:48:01.825Z,6.00
2018-12-10T16:50:30.061Z,6.00
2018-12-10T16:52:58.236Z,6.00
2018-12-10T16:55:26.383Z,5.90
2018-12-10T16:57:54.554Z,5.90
2018-12-10T17:00:22.938Z,6.00
2018-12-10T17:02:51.123Z,5.90
2018-12-10T17:05:21.236Z,5.80
2018-12-10T17:07:49.485Z,5.80
2018-12-10T17:10:17.720Z,5.90
2018-12-10T17:12:45.887Z,5.90
2018-12-10T17:15:14.032Z,5.80
2018-12-10T17:17:42.208Z,5.90
2018-12-10T17:20:10.575Z,5.90
2018-12-10T17:22:38.744Z,5.80
2018-12-10T17:25:07.136Z,5.70
2018-12-10T17:27:35.382Z,5.80
2018-12-10T17:30:05.166Z,5.70
2018-12-10T17:32:33.332Z,5.80
2018-12-10T17:35:01.490Z,5.80
2018-12-10T17:37:29.678Z,5.70
2018-12-10T17:39:57.957Z,5.80
2018-12-10T17:42:26.200Z,5.80
2018-12-10T17:44:54.417Z,5.80
2018-12-10T17:47:22.585Z,5.80
2018-12-10T17:49:51.129Z,5.80
2018-12-10T17:52:19.304Z,5.80
2018-12-10T17:54:47.453Z,5.90
2018-12-10T17:57:15.624Z,5.90
2018-12-10T17:59:43.964Z,5.90
2018-12-10T18:02:12.140Z,5.80
2018-12-10T18:04:40.300Z,5.80
2018-12-10T18:07:08.465Z,5.70
2018-12-10T18:09:36.883Z,5.70
2018-12-10T18:12:05.121Z,5.60
2018-12-10T18:14:33.280Z,5.50
2018-12-10T18:17:01.453Z,5.50
2018-12-10T18:19:29.781Z,5.30
2018-12-10T18:21:57.933Z,5.40
2018-12-10T18:24:26.101Z,5.20
2018-12-10T18:26:54.253Z,5.00
2018-12-10T18:29:22.488Z,5.00
2018-12-10T18:31:50.633Z,5.30
2018-12-10T18:34:19.271Z,5.30
2018-12-10T18:36:47.450Z,5.20
2018-12-10T18:39:15.753Z,5.20
2018-12-10T18:41:43.916Z,5.10
2018-12-10T18:44:12.077Z,5.00
2018-12-10T18:46:40.250Z,5.00
2018-12-10T18:49:08.397Z,5.10
2018-12-10T18:51:36.562Z,5.00
2018-12-10T18:54:04.708Z,5.00
2018-12-10T18:56:33.175Z,4.80
2018-12-10T18:59:01.481Z,4.80
2018-12-10T19:01:29.645Z,4.90
2018-12-10T19:03:57.792Z,4.90
2018-12-10T19:06:25.952Z,4.90
2018-12-10T19:08:54.540Z,4.70
2018-12-10T19:11:22.974Z,4.80
2018-12-10T19:13:51.145Z,4.90
2018-12-10T19:16:19.313Z,5.00
2018-12-10T19:18:47.581Z,4.90
2018-12-10T19:21:15.743Z,4.90
2018-12-10T19:23:43.896Z,5.00
2018-12-10T19:26:12.071Z,5.20
2018-12-10T19:28:40.537Z,5.20
2018-12-10T19:31:08.709Z,5.20
2018-12-10T19:33:36.849Z,5.30
2018-12-10T19:36:05.088Z,5.20
2018-12-10T19:38:33.374Z,5.30
2018-12-10T19:41:01.550Z,5.20
2018-12-10T19:43:29.731Z,5.20
2018-12-10T19:45:57.981Z,5.30
2018-12-10T19:48:26.174Z,5.20
2018-12-10T19:50:54.344Z,5.20
2018-12-10T19:53:22.485Z,5.20
2018-12-10T19:55:50.652Z,5.20
2018-12-10T19:58:18.840Z,5.20
2018-12-10T20:00:47.204Z,5.20
2018-12-10T20:03:15.529Z,5.20
2018-12-10T20:08:52.218Z,5.30
2018-12-10T20:11:20.459Z,5.30
2018-12-10T20:13:48.610Z,5.20
2018-12-10T20:16:16.773Z,5.20
2018-12-10T20:18:44.924Z,5.30
2018-12-10T20:21:13.134Z,5.20
2018-12-10T20:23:41.397Z,5.20
2018-12-10T20:26:09.643Z,5.30
2018-12-10T20:28:37.800Z,5.30
2018-12-10T20:31:06.150Z,5.30
2018-12-10T20:33:34.290Z,5.30
2018-12-10T20:36:02.469Z,5.40
2018-12-10T20:38:30.775Z,5.30
2018-12-10T20:40:59.197Z,5.30
2018-12-10T20:43:27.339Z,5.30
2018-12-10T20:45:55.504Z,5.30
2018-12-10T20:48:23.650Z,5.30
2018-12-10T20:50:51.925Z,5.30
2018-12-10T20:53:20.081Z,5.40
2018-12-10T20:55:48.227Z,5.30
2018-12-10T20:58:16.394Z,5.20
2018-12-10T21:00:44.673Z,5.20
2018-12-10T21:03:12.836Z,5.20
2018-12-10T21:05:46.660Z,5.20
2018-12-10T21:08:14.829Z,5.10
2018-12-10T21:10:43.134Z,5.10
2018-12-10T21:13:11.301Z,5.00
2018-12-10T21:15:39.452Z,4.90
2018-12-10T21:18:07.911Z,4.80
2018-12-10T21:20:36.138Z,4.70
2018-12-10T21:23:04.301Z,4.80
2018-12-10T21:25:32.498Z,4.90
2018-12-10T21:28:00.667Z,4.70
2018-12-10T21:30:28.809Z,4.60
2018-12-10T21:32:57.421Z,4.60
2018-12-10T21:35:25.565Z,4.80
2018-12-10T21:37:53.736Z,4.90
2018-12-10T21:40:21.877Z,4.60
2018-12-10T21:42:50.050Z,4.70
2018-12-10T21:45:18.195Z,4.80
2018-12-10T21:47:46.365Z,4.80
2018-12-10T21:50:14.646Z,4.90
2018-12-10T21:52:42.816Z,4.80
2018-12-10T21:55:16.765Z,4.90
2018-12-10T21:57:41.134Z,4.90
2018-12-10T22:00:09.516Z,4.80
2018-12-10T22:02:37.687Z,4.70
2018-12-10T22:05:05.994Z,4.60
2018-12-10T22:07:35.159Z,4.50
2018-12-10T22:10:03.953Z,4.50
2018-12-10T22:12:32.121Z,4.30
2018-12-10T22:15:00.269Z,4.30
2018-12-10T22:17:28.438Z,4.20
2018-12-10T22:19:56.718Z,4.30
2018-12-10T22:22:24.885Z,4.20
2018-12-10T22:24:53.036Z,4.30
2018-12-10T22:27:21.200Z,4.30
2018-12-10T22:29:49.412Z,4.30
2018-12-10T22:32:17.586Z,4.10
2018-12-10T22:34:45.725Z,4.10
2018-12-10T22:37:13.896Z,4.10
2018-12-10T22:39:42.104Z,4.10
2018-12-10T22:42:10.271Z,4.00
2018-12-10T22:44:38.420Z,3.80
2018-12-10T22:47:06.600Z,3.80
2018-12-10T22:49:34.918Z,3.70
2018-12-10T22:52:03.080Z,3.80
2018-12-10T22:54:31.236Z,3.90
2018-12-10T22:56:59.405Z,4.00
2018-12-10T22:59:27.707Z,4.10
2018-12-10T23:01:55.872Z,4.10
2018-12-10T23:04:24.097Z,4.20
2018-12-10T23:06:52.260Z,4.10
2018-12-10T23:09:20.514Z,4.10
2018-12-10T23:11:48.690Z,3.90
2018-12-10T23:14:16.836Z,3.90
2018-12-10T23:16:44.992Z,3.80
2018-12-10T23:19:13.223Z,3.80
2018-12-10T23:21:41.364Z,3.90
2018-12-10T23:24:09.542Z,3.80
2018-12-10T23:26:37.682Z,3.90
2018-12-10T23:29:05.917Z,3.70
2018-12-10T23:31:34.061Z,3.50
2018-12-10T23:34:02.227Z,3.40
2018-12-10T23:36:30.385Z,3.50
2018-12-10T23:38:58.623Z,3.70
2018-12-10T23:41:26.771Z,3.70
2018-12-10T23:43:54.935Z,3.90
2018-12-10T23:46:23.084Z,4.10
2018-12-10T23:48:51.515Z,4.00
2018-12-10T23:51:19.668Z,3.90
2018-12-10T23:53:47.916Z,3.90
2018-12-10T23:56:16.062Z,4.10
2018-12-10T23:58:44.429Z,4.10
